sensor_id;sensor_type;location;lat;lon;timestamp;temperature;humidity
43414;DHT22;73638;49.676;8.606;2024-03-29T00:05:02;10.2224;56.2799
43414;DHT22;73638;49.676;8.606;2024-03-29T00:10:08;10.2865;56.4019
43414;DHT22;73638;49.676;8.606;2024-03-29T00:15:15;10.3078;56.1563
43414;DHT22;73638;49.676;8.606;2024-03-29T00:20:21;10.3639;56.083
43414;DHT22;73638;49.676;8.606;2024-03-29T00:25:28;10.6069;55.8129
43414;DHT22;73638;49.676;8.606;2024-03-29T00:30:35;10.7324;55.0256
43414;DHT22;73638;49.676;8.606;2024-03-29T00:35:42;10.8659;54.9523
43414;DHT22;73638;49.676;8.606;2024-03-29T00:40:49;10.9648;54.6365
43414;DHT22;73638;49.676;8.606;2024-03-29T00:45:55;10.9648;54.1817
43414;DHT22;73638;49.676;8.606;2024-03-29T00:51:02;10.9087;55.1247
43414;DHT22;73638;49.676;8.606;2024-03-29T00:56:09;11.0395;54.6242
43414;DHT22;73638;49.676;8.606;2024-03-29T01:01:16;11.125;54.6731
43414;DHT22;73638;49.676;8.606;2024-03-29T01:06:22;11.3333;53.6416
43414;DHT22;73638;49.676;8.606;2024-03-29T01:11:30;11.424;53.3593
43414;DHT22;73638;49.676;8.606;2024-03-29T01:16:36;11.6697;52.8176
43414;DHT22;73638;49.676;8.606;2024-03-29T01:21:43;11.6697;52.5231
43414;DHT22;73638;49.676;8.606;2024-03-29T01:26:50;11.9768;52.5963
43414;DHT22;73638;49.676;8.606;2024-03-29T01:31:57;12.1504;52.4498
43414;DHT22;73638;49.676;8.606;2024-03-29T01:37:04;11.886;51.4168
43414;DHT22;73638;49.676;8.606;2024-03-29T01:42:10;11.7391;51.3924
43414;DHT22;73638;49.676;8.606;2024-03-29T01:47:18;11.7391;51.5892
43414;DHT22;73638;49.676;8.606;2024-03-29T01:52:24;11.7819;51.6503
43414;DHT22;73638;49.676;8.606;2024-03-29T01:57:31;12.0115;51.5038
43414;DHT22;73638;49.676;8.606;2024-03-29T02:02:37;12.0943;50.9743
43414;DHT22;73638;49.676;8.606;2024-03-29T02:07:45;12.1637;50.3105
43414;DHT22;73638;49.676;8.606;2024-03-29T02:12:51;12.2839;50.84
43414;DHT22;73638;49.676;8.606;2024-03-29T02:17:58;12.2412;51.0369
43414;DHT22;73638;49.676;8.606;2024-03-29T02:23:07;12.3106;50.8324
43414;DHT22;73638;49.676;8.606;2024-03-29T02:28:12;12.2492;51.4168
43414;DHT22;73638;49.676;8.606;2024-03-29T02:33:20;12.2278;51.5648
43414;DHT22;73638;49.676;8.606;2024-03-29T02:38:25;12.4014;50.7591
43414;DHT22;73638;49.676;8.606;2024-03-29T02:43:31;12.3827;51.1269
43414;DHT22;73638;49.676;8.606;2024-03-29T02:48:38;12.4521;50.9438
43414;DHT22;73638;49.676;8.606;2024-03-29T02:53:45;12.5002;50.93
43414;DHT22;73638;49.676;8.606;2024-03-29T02:58:52;12.2919;51.2078
43414;DHT22;73638;49.676;8.606;2024-03-29T03:03:58;12.2492;50.9377
43414;DHT22;73638;49.676;8.606;2024-03-29T03:09:05;12.1157;51.3558
43414;DHT22;73638;49.676;8.606;2024-03-29T03:14:12;12.0462;51.7739
43414;DHT22;73638;49.676;8.606;2024-03-29T03:19:19;12.2705;52.6329
43414;DHT22;73638;49.676;8.606;2024-03-29T03:24:25;12.3053;52.9946
43414;DHT22;73638;49.676;8.606;2024-03-29T03:29:32;12.3186;53.3761
43414;DHT22;73638;49.676;8.606;2024-03-29T03:34:39;12.3667;52.5658
43414;DHT22;73638;49.676;8.606;2024-03-29T03:39:45;12.4094;52.43
43414;DHT22;73638;49.676;8.606;2024-03-29T03:44:52;12.4575;52.7245
43414;DHT22;73638;49.676;8.606;2024-03-29T03:49:59;12.4868;53.4127
43414;DHT22;73638;49.676;8.606;2024-03-29T03:55:06;12.3613;53.0938
43414;DHT22;73638;49.676;8.606;2024-03-29T04:00:13;12.4575;53.4737
43414;DHT22;73638;49.676;8.606;2024-03-29T04:05:20;12.4922;54.052
43414;DHT22;73638;49.676;8.606;2024-03-29T04:10:26;12.2972;55.5459
43414;DHT22;73638;49.676;8.606;2024-03-29T04:15:33;12.4228;55.256
43414;DHT22;73638;49.676;8.606;2024-03-29T04:20:39;12.2972;55.9762
43414;DHT22;73638;49.676;8.606;2024-03-29T04:25:51;12.2705;56.1349
43414;DHT22;73638;49.676;8.606;2024-03-29T04:30:53;12.4655;56.1044
43414;DHT22;73638;49.676;8.606;2024-03-29T04:36:02;12.396;55.8709
43414;DHT22;73638;49.676;8.606;2024-03-29T04:41:06;12.2278;56.6888
43414;DHT22;73638;49.676;8.606;2024-03-29T04:46:14;12.1157;56.6522
43414;DHT22;73638;49.676;8.606;2024-03-29T04:51:25;12.0676;56.9467
43414;DHT22;73638;49.676;8.606;2024-03-29T04:56:27;12.0462;57.4746
43414;DHT22;73638;49.676;8.606;2024-03-29T05:01:33;11.9821;58.3474
43414;DHT22;73638;49.676;8.606;2024-03-29T05:06:40;12.1931;59.4659
43414;DHT22;73638;49.676;8.606;2024-03-29T05:11:47;12.2972;59.9329
43414;DHT22;73638;49.676;8.606;2024-03-29T05:16:54;12.3453;60.2945
43414;DHT22;73638;49.676;8.606;2024-03-29T05:22:00;12.2759;61.3703
43414;DHT22;73638;49.676;8.606;2024-03-29T05:27:07;12.3613;61.4496
43414;DHT22;73638;49.676;8.606;2024-03-29T05:32:14;12.2625;62.6856
43414;DHT22;73638;49.676;8.606;2024-03-29T05:37:21;12.4014;62.7268
43414;DHT22;73638;49.676;8.606;2024-03-29T05:42:29;12.388;63.0838
43414;DHT22;73638;49.676;8.606;2024-03-29T05:47:34;12.3667;63.5386
43414;DHT22;73638;49.676;8.606;2024-03-29T05:52:41;12.388;63.6484
43414;DHT22;73638;49.676;8.606;2024-03-29T05:57:48;12.4868;64.4602
43414;DHT22;73638;49.676;8.606;2024-03-29T06:02:55;12.4228;64.5335
43414;DHT22;73638;49.676;8.606;2024-03-29T06:08:01;12.4575;65.0004
43414;DHT22;73638;49.676;8.606;2024-03-29T06:13:08;12.5483;65.037
43414;DHT22;73638;49.676;8.606;2024-03-29T06:18:15;12.5643;63.9429
43414;DHT22;73638;49.676;8.606;2024-03-29T06:23:21;12.6471;63.8941
43414;DHT22;73638;49.676;8.606;2024-03-29T06:28:28;12.7646;63.476
43414;DHT22;73638;49.676;8.606;2024-03-29T06:33:35;12.7859;63.8941
43414;DHT22;73638;49.676;8.606;2024-03-29T06:38:42;12.8367;63.9551
43414;DHT22;73638;49.676;8.606;2024-03-29T06:43:49;12.8553;63.6118
43414;DHT22;73638;49.676;8.606;2024-03-29T06:48:55;12.8286;63.8331
43414;DHT22;73638;49.676;8.606;2024-03-29T06:54:02;12.8073;64.4846
43414;DHT22;73638;49.676;8.606;2024-03-29T06:59:09;12.7859;64.7303
43414;DHT22;73638;49.676;8.606;2024-03-29T07:04:16;12.7806;64.3488
43414;DHT22;73638;49.676;8.606;2024-03-29T07:09:22;12.6898;64.4343
43414;DHT22;73638;49.676;8.606;2024-03-29T07:14:29;12.7512;64.4968
43414;DHT22;73638;49.676;8.606;2024-03-29T07:19:36;12.7859;64.3732
43414;DHT22;73638;49.676;8.606;2024-03-29T07:24:43;12.8847;64.509
43414;DHT22;73638;49.676;8.606;2024-03-29T07:29:49;12.9461;63.4882
43414;DHT22;73638;49.676;8.606;2024-03-29T07:34:56;12.9969;62.6902
43414;DHT22;73638;49.676;8.606;2024-03-29T07:40:04;12.9969;62.8122
43414;DHT22;73638;49.676;8.606;2024-03-29T07:45:10;13.1357;63.0457
43414;DHT22;73638;49.676;8.606;2024-03-29T07:50:17;13.1785;63.1449
43414;DHT22;73638;49.676;8.606;2024-03-29T07:55:24;13.3173;63.6728
43414;DHT22;73638;49.676;8.606;2024-03-29T08:00:32;13.4562;63.6118
43414;DHT22;73638;49.676;8.606;2024-03-29T08:05:38;13.4508;64.152
43414;DHT22;73638;49.676;8.606;2024-03-29T08:10:45;13.4375;64.0299
43414;DHT22;73638;49.676;8.606;2024-03-29T08:15:56;13.4909;64.3732
43414;DHT22;73638;49.676;8.606;2024-03-29T08:20:59;13.5069;64.2008
43414;DHT22;73638;49.676;8.606;2024-03-29T08:26:05;13.5416;64.3244
43414;DHT22;73638;49.676;8.606;2024-03-29T08:31:12;13.5763;64.4099
43414;DHT22;73638;49.676;8.606;2024-03-29T08:36:19;13.6458;63.9673
43414;DHT22;73638;49.676;8.606;2024-03-29T08:41:25;13.6458;64.0543
43414;DHT22;73638;49.676;8.606;2024-03-29T08:46:32;13.7152;62.7436
43414;DHT22;73638;49.676;8.606;2024-03-29T08:51:39;13.6725;62.8901
43414;DHT22;73638;49.676;8.606;2024-03-29T08:56:47;13.6725;62.7314
43414;DHT22;73638;49.676;8.606;2024-03-29T09:01:53;13.7018;62.7192
43414;DHT22;73638;49.676;8.606;2024-03-29T09:07:00;13.6938;62.7924
43414;DHT22;73638;49.676;8.606;2024-03-29T09:12:06;13.6805;63.1357
43414;DHT22;73638;49.676;8.606;2024-03-29T09:17:13;13.7285;63.6149
43414;DHT22;73638;49.676;8.606;2024-03-29T09:22:20;13.7579;64.0208
43414;DHT22;73638;49.676;8.606;2024-03-29T09:27:27;13.6885;64.1321
43414;DHT22;73638;49.676;8.606;2024-03-29T09:32:34;13.5977;64.9134
43414;DHT22;73638;49.676;8.606;2024-03-29T09:37:41;13.5817;65.1347
43414;DHT22;73638;49.676;8.606;2024-03-29T09:42:48;13.603;65.4917
43414;DHT22;73638;49.676;8.606;2024-03-29T09:47:55;13.4215;66.2898
43414;DHT22;73638;49.676;8.606;2024-03-29T09:53:01;13.3387;66.0441
43414;DHT22;73638;49.676;8.606;2024-03-29T09:58:08;13.1838;65.9953
43414;DHT22;73638;49.676;8.606;2024-03-29T10:03:15;13.0583;66.5492
43414;DHT22;73638;49.676;8.606;2024-03-29T10:08:21;13.0316;67.5319
43414;DHT22;73638;49.676;8.606;2024-03-29T10:13:28;12.8767;67.2496
43414;DHT22;73638;49.676;8.606;2024-03-29T10:18:34;12.9461;67.1138
43414;DHT22;73638;49.676;8.606;2024-03-29T10:23:41;13.0797;67.5929
43414;DHT22;73638;49.676;8.606;2024-03-29T10:28:48;13.2479;67.2358
43414;DHT22;73638;49.676;8.606;2024-03-29T10:34:02;13.36;67.396
43414;DHT22;73638;49.676;8.606;2024-03-29T10:39:09;13.6671;67.6539
43414;DHT22;73638;49.676;8.606;2024-03-29T10:44:15;14.0223;67.6219
43414;DHT22;73638;49.676;8.606;2024-03-29T10:49:18;14.4976;67.5959
43414;DHT22;73638;49.676;8.606;2024-03-29T10:54:24;14.9596;67.8431
43414;DHT22;73638;49.676;8.606;2024-03-29T10:59:35;15.4402;67.0436
43414;DHT22;73638;49.676;8.606;2024-03-29T11:04:44;15.7259;67.4357
43414;DHT22;73638;49.676;8.606;2024-03-29T11:09:50;16.0143;67.1046
43414;DHT22;73638;49.676;8.606;2024-03-29T11:14:57;16.0758;67.6081
43414;DHT22;73638;49.676;8.606;2024-03-29T11:20:00;16.2093;67.1778
43414;DHT22;73638;49.676;8.606;2024-03-29T11:25:10;16.3909;66.8711
43414;DHT22;73638;49.676;8.606;2024-03-29T11:30:16;16.5644;66.4256
43414;DHT22;73638;49.676;8.606;2024-03-29T11:35:21;16.4389;66.4012
43414;DHT22;73638;49.676;8.606;2024-03-29T11:40:29;16.3081;67.068
43414;DHT22;73638;49.676;8.606;2024-03-29T11:45:34;16.4256;66.5858
43414;DHT22;73638;49.676;8.606;2024-03-29T11:50:41;16.2093;67.2145
43414;DHT22;73638;49.676;8.606;2024-03-29T11:55:48;16.0704;67.129
43414;DHT22;73638;49.676;8.606;2024-03-29T12:00:56;16.2173;67.4235
43414;DHT22;73638;49.676;8.606;2024-03-29T12:06:02;16.0891;67.2023
43414;DHT22;73638;49.676;8.606;2024-03-29T12:11:09;15.9583;67.5349
43414;DHT22;73638;49.676;8.606;2024-03-29T12:16:15;15.8675;68.1849
43414;DHT22;73638;49.676;8.606;2024-03-29T12:21:23;15.8034;68.2231
43414;DHT22;73638;49.676;8.606;2024-03-29T12:26:29;15.8034;68.7999
43414;DHT22;73638;49.676;8.606;2024-03-29T12:31:36;15.7073;69.0089
43414;DHT22;73638;49.676;8.606;2024-03-29T12:36:43;15.6298;69.4636
43414;DHT22;73638;49.676;8.606;2024-03-29T12:41:49;15.6432;69.894
43414;DHT22;73638;49.676;8.606;2024-03-29T12:46:56;15.6165;69.8695
43414;DHT22;73638;49.676;8.606;2024-03-29T12:52:05;15.6645;69.8314
43414;DHT22;73638;49.676;8.606;2024-03-29T12:57:10;15.6565;70.0526
43414;DHT22;73638;49.676;8.606;2024-03-29T13:02:17;15.5737;70.3609
43414;DHT22;73638;49.676;8.606;2024-03-29T13:07:24;15.4749;70.8766
43414;DHT22;73638;49.676;8.606;2024-03-29T13:12:31;15.4055;71.0246
43414;DHT22;73638;49.676;8.606;2024-03-29T13:17:37;15.3975;70.9499
43414;DHT22;73638;49.676;8.606;2024-03-29T13:22:45;15.3281;71.22
43414;DHT22;73638;49.676;8.606;2024-03-29T13:27:53;15.3147;71.6381
43414;DHT22;73638;49.676;8.606;2024-03-29T13:32:57;15.2373;71.7861
43414;DHT22;73638;49.676;8.606;2024-03-29T13:38:04;15.2159;71.9463
43414;DHT22;73638;49.676;8.606;2024-03-29T13:43:11;15.1411;71.9341
43414;DHT22;73638;49.676;8.606;2024-03-29T13:48:18;15.1759;72.0806
43414;DHT22;73638;49.676;8.606;2024-03-29T13:53:25;15.0343;72.7199
43414;DHT22;73638;49.676;8.606;2024-03-29T13:58:31;15.021;72.5734
43414;DHT22;73638;49.676;8.606;2024-03-29T14:03:38;14.9435;72.5124
43414;DHT22;73638;49.676;8.606;2024-03-29T14:08:45;14.7566;72.401
43414;DHT22;73638;49.676;8.606;2024-03-29T14:13:52;14.7272;72.5978
43414;DHT22;73638;49.676;8.606;2024-03-29T14:18:59;14.8047;73.0892
43414;DHT22;73638;49.676;8.606;2024-03-29T14:24:06;14.8608;73.2128
43414;DHT22;73638;49.676;8.606;2024-03-29T14:29:13;14.9649;73.0159
43414;DHT22;73638;49.676;8.606;2024-03-29T14:34:20;15.0423;73.1136
43414;DHT22;73638;49.676;8.606;2024-03-29T14:39:27;15.2106;73.0022
43414;DHT22;73638;49.676;8.606;2024-03-29T14:44:34;15.3147;72.7199
43414;DHT22;73638;49.676;8.606;2024-03-29T14:54:49;15.5097;72.1416
43414;DHT22;73638;49.676;8.606;2024-03-29T14:59:57;15.6992;71.7006
43414;DHT22;73638;49.676;8.606;2024-03-29T15:05:04;16.3561;70.84
43414;DHT22;73638;49.676;8.606;2024-03-29T15:10:11;16.5591;70.3334
43414;DHT22;73638;49.676;8.606;2024-03-29T15:15:18;16.495;70.1488
43414;DHT22;73638;49.676;8.606;2024-03-29T15:20:25;16.2921;70.0526
43414;DHT22;73638;49.676;8.606;2024-03-29T15:25:33;16.0891;69.6483
43414;DHT22;73638;49.676;8.606;2024-03-29T15:30:38;15.9716;70.3853
43414;DHT22;73638;49.676;8.606;2024-03-29T15:35:45;16.0143;70.4952
43414;DHT22;73638;49.676;8.606;2024-03-29T15:40:53;16.0891;70.1762
43414;DHT22;73638;49.676;8.606;2024-03-29T15:45:59;16.7193;69.2393
43414;DHT22;73638;49.676;8.606;2024-03-29T15:51:06;16.7674;69.7063
43414;DHT22;73638;49.676;8.606;2024-03-29T15:56:13;16.5511;68.7236
43414;DHT22;73638;49.676;8.606;2024-03-29T16:01:20;16.7407;67.9988
43414;DHT22;73638;49.676;8.606;2024-03-29T16:06:27;16.6632;68.6381
43414;DHT22;73638;49.676;8.606;2024-03-29T16:11:35;16.7967;69.044
43414;DHT22;73638;49.676;8.606;2024-03-29T16:16:41;16.9062;68.896
43414;DHT22;73638;49.676;8.606;2024-03-29T16:21:48;16.9142;68.8716
43414;DHT22;73638;49.676;8.606;2024-03-29T16:26:54;16.949;68.9204
43414;DHT22;73638;49.676;8.606;2024-03-29T16:32:01;16.9223;68.8228
43414;DHT22;73638;49.676;8.606;2024-03-29T16:37:09;16.9436;69.0059
43414;DHT22;73638;49.676;8.606;2024-03-29T16:42:15;16.957;69.0928
43414;DHT22;73638;49.676;8.606;2024-03-29T16:47:22;16.7247;69.3263
43414;DHT22;73638;49.676;8.606;2024-03-29T16:52:29;16.5591;69.5232
43414;DHT22;73638;49.676;8.606;2024-03-29T16:57:36;16.495;69.5598
43414;DHT22;73638;49.676;8.606;2024-03-29T17:02:43;16.3481;70.2983
43414;DHT22;73638;49.676;8.606;2024-03-29T17:07:50;16.1051;70.692
43414;DHT22;73638;49.676;8.606;2024-03-29T17:12:56;15.9583;71.2703
43414;DHT22;73638;49.676;8.606;2024-03-29T17:18:04;15.6912;71.8593
43414;DHT22;73638;49.676;8.606;2024-03-29T17:23:10;15.5604;72.2042
43414;DHT22;73638;49.676;8.606;2024-03-29T17:28:17;15.3788;71.6381
43414;DHT22;73638;49.676;8.606;2024-03-29T17:33:23;15.1251;71.5648
43414;DHT22;73638;49.676;8.606;2024-03-29T17:38:30;14.9035;72.4376
43414;DHT22;73638;49.676;8.606;2024-03-29T17:43:37;14.826;73.5561
43414;DHT22;73638;49.676;8.606;2024-03-29T17:48:43;14.6578;73.3104
43414;DHT22;73638;49.676;8.606;2024-03-29T17:53:50;14.567;73.8384
43414;DHT22;73638;49.676;8.606;2024-03-29T17:58:57;14.3935;73.9376
43414;DHT22;73638;49.676;8.606;2024-03-29T18:04:04;14.3027;73.9498
43414;DHT22;73638;49.676;8.606;2024-03-29T18:09:10;14.2332;73.901
43414;DHT22;73638;49.676;8.606;2024-03-29T18:14:17;14.2039;74.0841
43414;DHT22;73638;49.676;8.606;2024-03-29T18:19:24;14.0436;74.4167
43414;DHT22;73638;49.676;8.606;2024-03-29T18:24:31;13.9822;74.5144
43414;DHT22;73638;49.676;8.606;2024-03-29T18:29:38;13.8407;74.6746
43414;DHT22;73638;49.676;8.606;2024-03-29T18:34:44;13.8487;74.3801
43414;DHT22;73638;49.676;8.606;2024-03-29T18:39:51;13.814;73.9986
43414;DHT22;73638;49.676;8.606;2024-03-29T18:44:58;13.8407;73.9986
43414;DHT22;73638;49.676;8.606;2024-03-29T18:50:05;13.7579;73.9986
43414;DHT22;73638;49.676;8.606;2024-03-29T18:55:12;13.7499;74.1207
43414;DHT22;73638;49.676;8.606;2024-03-29T19:00:19;13.6324;74.1054
43414;DHT22;73638;49.676;8.606;2024-03-29T19:05:25;13.611;73.8598
43414;DHT22;73638;49.676;8.606;2024-03-29T19:10:32;13.4642;74.1421
43414;DHT22;73638;49.676;8.606;2024-03-29T19:15:38;13.4909;74.5602
43414;DHT22;73638;49.676;8.606;2024-03-29T19:20:45;13.2399;74.6578
43414;DHT22;73638;49.676;8.606;2024-03-29T19:25:52;13.1998;74.9279
43414;DHT22;73638;49.676;8.606;2024-03-29T19:30:58;13.1437;74.8913
43414;DHT22;73638;49.676;8.606;2024-03-29T19:36:06;13.0449;74.9416
43414;DHT22;73638;49.676;8.606;2024-03-29T19:41:12;12.9622;75.0271
43414;DHT22;73638;49.676;8.606;2024-03-29T19:46:18;12.9114;75.3216
43414;DHT22;73638;49.676;8.606;2024-03-29T19:51:25;12.8901;75.1751
43414;DHT22;73638;49.676;8.606;2024-03-29T19:56:32;12.8714;75.2606
43414;DHT22;73638;49.676;8.606;2024-03-29T20:01:39;12.8073;75.2361
43414;DHT22;73638;49.676;8.606;2024-03-29T20:06:45;12.7459;75.1247
43414;DHT22;73638;49.676;8.606;2024-03-29T20:11:52;12.6738;75.3338
43414;DHT22;73638;49.676;8.606;2024-03-29T20:16:59;12.6257;75.2972
43414;DHT22;73638;49.676;8.606;2024-03-29T20:22:08;12.5483;74.6334
43414;DHT22;73638;49.676;8.606;2024-03-29T20:27:12;12.4868;75.0393
43414;DHT22;73638;49.676;8.606;2024-03-29T20:32:19;12.4174;75.0149
43414;DHT22;73638;49.676;8.606;2024-03-29T20:37:25;12.3106;75.0393
43414;DHT22;73638;49.676;8.606;2024-03-29T20:42:33;12.2545;75.4025
43414;DHT22;73638;49.676;8.606;2024-03-29T20:47:39;12.2412;75.5383
43414;DHT22;73638;49.676;8.606;2024-03-29T20:52:46;12.2759;75.3536
43414;DHT22;73638;49.676;8.606;2024-03-29T20:57:53;12.1103;75.5383
43414;DHT22;73638;49.676;8.606;2024-03-29T21:02:59;12.1584;75.5871
43414;DHT22;73638;49.676;8.606;2024-03-29T21:08:07;12.0943;75.6603
43414;DHT22;73638;49.676;8.606;2024-03-29T21:13:13;12.1637;75.5261
43414;DHT22;73638;49.676;8.606;2024-03-29T21:18:20;12.1504;75.697
43414;DHT22;73638;49.676;8.606;2024-03-29T21:23:27;12.1797;75.7214
43414;DHT22;73638;49.676;8.606;2024-03-29T21:28:33;12.0943;75.7595
43414;DHT22;73638;49.676;8.606;2024-03-29T21:33:40;12.0195;75.3658
43414;DHT22;73638;49.676;8.606;2024-03-29T21:38:47;11.9127;75.7839
43414;DHT22;73638;49.676;8.606;2024-03-29T21:43:54;11.8914;75.9686
43414;DHT22;73638;49.676;8.606;2024-03-29T21:49:00;11.7819;75.845
43414;DHT22;73638;49.676;8.606;2024-03-29T21:54:07;11.7605;75.8328
43414;DHT22;73638;49.676;8.606;2024-03-29T21:59:14;11.7098;75.9808
43414;DHT22;73638;49.676;8.606;2024-03-29T22:04:22;11.6831;75.6725
43414;DHT22;73638;49.676;8.606;2024-03-29T22:09:28;11.7044;76.1089
43414;DHT22;73638;49.676;8.606;2024-03-29T22:14:34;11.627;75.8328
43414;DHT22;73638;49.676;8.606;2024-03-29T22:19:41;11.6003;75.9686
43414;DHT22;73638;49.676;8.606;2024-03-29T22:24:48;11.6056;75.5749
43414;DHT22;73638;49.676;8.606;2024-03-29T22:29:54;11.4588;75.9304
43414;DHT22;73638;49.676;8.606;2024-03-29T22:35:01;11.5442;75.8694
43414;DHT22;73638;49.676;8.606;2024-03-29T22:40:09;11.5496;75.9548
43414;DHT22;73638;49.676;8.606;2024-03-29T22:45:15;11.4534;75.23
43414;DHT22;73638;49.676;8.606;2024-03-29T22:50:21;11.368;75.1202
43414;DHT22;73638;49.676;8.606;2024-03-29T22:55:28;11.3626;75.23
43414;DHT22;73638;49.676;8.606;2024-03-29T23:00:35;11.384;75.4269
43414;DHT22;73638;49.676;8.606;2024-03-29T23:05:41;11.368;75.5138
43414;DHT22;73638;49.676;8.606;2024-03-29T23:10:50;11.4374;75.7961
43414;DHT22;73638;49.676;8.606;2024-03-29T23:15:55;11.5496;75.8083
43414;DHT22;73638;49.676;8.606;2024-03-29T23:21:02;11.4881;75.9182
43414;DHT22;73638;49.676;8.606;2024-03-29T23:26:09;11.4748;76.0174
43414;DHT22;73638;49.676;8.606;2024-03-29T23:31:15;11.4935;76.1273
43414;DHT22;73638;49.676;8.606;2024-03-29T23:36:23;11.5709;76.0998
43414;DHT22;73638;49.676;8.606;2024-03-29T23:41:29;11.4935;75.6115
43414;DHT22;73638;49.676;8.606;2024-03-29T23:46:36;11.4187;75.4025
43414;DHT22;73638;49.676;8.606;2024-03-29T23:51:42;11.4187;75.7839
43414;DHT22;73638;49.676;8.606;2024-03-29T23:56:49;11.4881;76.0998
